createdAt,value
2018-06-17T00:02:09.616Z,44.87
2018-06-17T00:04:38.945Z,33.93
2018-06-17T00:07:08.401Z,35.97
2018-06-17T00:09:37.792Z,39.63
2018-06-17T00:12:07.149Z,48.63
2018-06-17T00:14:36.535Z,48.10
2018-06-17T00:17:06.105Z,40.80
2018-06-17T00:19:35.529Z,53.33
2018-06-17T00:22:04.982Z,44.47
2018-06-17T00:24:34.331Z,45.00
2018-06-17T00:27:03.754Z,44.00
2018-06-17T00:29:33.062Z,45.60
2018-06-17T00:32:02.420Z,43.97
2018-06-17T00:34:31.768Z,44.67
2018-06-17T00:37:01.115Z,41.37
2018-06-17T00:39:30.598Z,39.77
2018-06-17T00:41:59.976Z,39.07
2018-06-17T00:44:29.421Z,47.13
2018-06-17T00:46:58.792Z,42.30
2018-06-17T00:49:28.213Z,41.83
2018-06-17T00:51:57.574Z,38.97
2018-06-17T00:54:27.013Z,43.93
2018-06-17T00:57:07.497Z,41.57
2018-06-17T00:59:36.920Z,47.90
2018-06-17T01:02:06.254Z,38.00
2018-06-17T01:04:35.597Z,43.63
2018-06-17T01:07:05.006Z,47.00
2018-06-17T01:09:34.483Z,49.80
2018-06-17T01:12:03.937Z,55.93
2018-06-17T01:14:33.276Z,44.27
2018-06-17T01:17:02.609Z,51.03
2018-06-17T01:19:32.280Z,48.50
2018-06-17T01:22:01.941Z,56.50
2018-06-17T01:24:31.242Z,55.73
2018-06-17T01:27:00.599Z,55.53
2018-06-17T01:29:29.964Z,58.53
2018-06-17T01:31:59.469Z,71.13
2018-06-17T01:34:29.043Z,63.10
2018-06-17T01:36:58.445Z,69.37
2018-06-17T01:39:29.096Z,62.50
2018-06-17T01:41:58.589Z,67.87
2018-06-17T01:44:28.086Z,61.17
2018-06-17T01:46:57.520Z,77.73
2018-06-17T01:49:26.988Z,71.50
2018-06-17T01:51:56.440Z,73.77
2018-06-17T01:54:25.827Z,62.73
2018-06-17T01:56:55.197Z,71.57
2018-06-17T01:59:24.531Z,71.50
2018-06-17T02:01:53.869Z,75.80
2018-06-17T02:04:28.411Z,83.90
2018-06-17T02:07:02.890Z,76.40
2018-06-17T02:09:37.498Z,75.90
2018-06-17T02:12:12.262Z,79.00
2018-06-17T02:14:46.817Z,72.13
2018-06-17T02:17:16.147Z,78.90
2018-06-17T02:19:45.493Z,72.23
2018-06-17T02:22:14.805Z,74.00
2018-06-17T02:24:44.278Z,66.63
2018-06-17T02:27:13.668Z,65.50
2018-06-17T02:29:43.227Z,66.83
2018-06-17T02:32:12.782Z,65.10
2018-06-17T02:34:42.129Z,62.10
2018-06-17T02:37:11.533Z,63.40
2018-06-17T02:39:41.030Z,56.73
2018-06-17T02:42:10.768Z,62.27
2018-06-17T02:44:40.176Z,58.47
2018-06-17T02:47:14.793Z,65.13
2018-06-17T02:49:47.192Z,63.87
2018-06-17T02:52:21.903Z,64.93
2018-06-17T02:54:51.233Z,53.00
2018-06-17T02:57:20.873Z,62.73
2018-06-17T02:59:50.178Z,54.43
2018-06-17T03:02:19.498Z,53.63
2018-06-17T03:04:48.805Z,55.03
2018-06-17T03:07:18.204Z,71.77
2018-06-17T03:09:47.524Z,57.73
2018-06-17T03:12:16.892Z,53.00
2018-06-17T03:14:46.197Z,56.60
2018-06-17T03:17:15.533Z,56.10
2018-06-17T03:19:44.929Z,55.33
2018-06-17T03:22:14.287Z,60.20
2018-06-17T03:24:49.042Z,54.43
2018-06-17T03:27:23.390Z,56.20
2018-06-17T03:29:57.936Z,44.17
2018-06-17T03:32:32.691Z,48.23
2018-06-17T03:35:07.302Z,49.47
2018-06-17T03:37:36.682Z,48.03
2018-06-17T03:40:06.018Z,48.23
2018-06-17T03:42:35.449Z,48.77
2018-06-17T03:45:04.900Z,40.80
2018-06-17T03:47:34.250Z,41.57
2018-06-17T03:50:03.804Z,45.10
2018-06-17T03:52:33.322Z,36.50
2018-06-17T03:55:02.879Z,35.07
2018-06-17T03:57:32.313Z,35.93
2018-06-17T04:00:01.746Z,31.00
2018-06-17T04:02:33.921Z,31.20
2018-06-17T04:05:08.715Z,29.70
2018-06-17T04:07:38.134Z,48.07
2018-06-17T04:10:07.507Z,30.40
2018-06-17T04:12:36.886Z,29.27
2018-06-17T04:15:06.264Z,24.70
2018-06-17T04:17:35.602Z,26.67
2018-06-17T04:20:05.049Z,29.73
2018-06-17T04:22:34.371Z,26.60
2018-06-17T04:25:03.882Z,24.60
2018-06-17T04:27:33.219Z,24.63
2018-06-17T04:30:02.668Z,29.60
2018-06-17T04:32:32.094Z,26.30
2018-06-17T04:35:01.419Z,24.83
2018-06-17T04:37:31.689Z,24.40
2018-06-17T04:40:01.146Z,27.77
2018-06-17T04:42:30.610Z,19.63
2018-06-17T04:45:00.272Z,15.47
2018-06-17T04:47:29.714Z,20.33
2018-06-17T04:49:59.038Z,15.53
2018-06-17T04:52:28.382Z,11.50
2018-06-17T04:54:57.717Z,11.17
2018-06-17T04:57:27.166Z,18.10
2018-06-17T04:59:56.748Z,11.53
2018-06-17T05:02:26.333Z,15.10
2018-06-17T05:04:55.733Z,12.07
2018-06-17T05:07:25.050Z,12.20
2018-06-17T05:09:54.578Z,13.80
2018-06-17T05:12:24.069Z,8.83
2018-06-17T05:14:53.614Z,8.83
2018-06-17T05:17:23.050Z,19.10
2018-06-17T05:19:52.357Z,8.30
2018-06-17T05:22:24.644Z,7.27
2018-06-17T05:24:53.993Z,7.47
2018-06-17T05:27:23.450Z,10.23
2018-06-17T05:29:52.749Z,11.23
2018-06-17T05:32:22.160Z,5.30
2018-06-17T05:34:51.510Z,4.43
2018-06-17T05:37:20.833Z,9.17
2018-06-17T05:39:50.232Z,4.30
2018-06-17T05:42:19.545Z,3.70
2018-06-17T05:44:48.918Z,5.13
2018-06-17T05:47:18.236Z,5.93
2018-06-17T05:49:47.533Z,3.90
2018-06-17T05:52:16.844Z,6.57
2018-06-17T05:54:46.173Z,3.57
2018-06-17T05:57:15.473Z,6.20
2018-06-17T05:59:44.822Z,3.80
2018-06-17T06:02:14.273Z,4.70
2018-06-17T06:04:43.617Z,5.93
2018-06-17T06:07:12.982Z,4.10
2018-06-17T06:09:42.278Z,6.60
2018-06-17T06:12:11.589Z,3.97
2018-06-17T06:14:40.919Z,5.60
2018-06-17T06:17:10.181Z,6.50
2018-06-17T06:19:39.530Z,4.30
2018-06-17T06:22:08.889Z,7.17
2018-06-17T06:24:38.299Z,8.53
2018-06-17T06:27:07.599Z,3.80
2018-06-17T06:29:36.878Z,6.53
2018-06-17T06:32:06.204Z,2.83
2018-06-17T06:34:35.476Z,4.60
2018-06-17T06:37:05.306Z,6.03
2018-06-17T06:39:34.718Z,6.43
2018-06-17T06:42:04.104Z,3.33
2018-06-17T06:44:33.427Z,5.80
2018-06-17T06:47:02.805Z,2.77
2018-06-17T06:49:32.120Z,2.20
2018-06-17T06:52:01.453Z,3.97
2018-06-17T06:54:30.820Z,4.23
2018-06-17T06:57:00.095Z,4.50
2018-06-17T06:59:29.416Z,2.37
2018-06-17T07:02:10.077Z,3.90
2018-06-17T07:04:50.697Z,4.30
2018-06-17T07:07:31.271Z,3.40
2018-06-17T07:10:11.796Z,2.70
2018-06-17T07:12:41.084Z,3.23
2018-06-17T07:15:10.380Z,4.37
2018-06-17T07:17:50.885Z,3.57
2018-06-17T07:20:20.184Z,2.70
2018-06-17T07:22:49.196Z,5.50
2018-06-17T07:25:28.144Z,3.63
2018-06-17T07:30:14.325Z,18.27
2018-06-17T07:32:43.378Z,4.83
2018-06-17T07:35:12.443Z,3.03
2018-06-17T07:37:41.560Z,4.43
2018-06-17T07:40:53.454Z,2.10
2018-06-17T07:43:22.646Z,2.50
2018-06-17T07:45:51.703Z,6.13
2018-06-17T07:49:36.553Z,3.27
2018-06-17T07:52:17.636Z,3.43
2018-06-17T07:54:47.094Z,5.13
2018-06-17T07:57:17.399Z,2.10
2018-06-17T07:59:46.456Z,5.10
2018-06-17T08:02:15.814Z,4.10
2018-06-17T08:04:44.956Z,2.70
2018-06-17T08:07:14.028Z,2.60
2018-06-17T08:09:43.160Z,4.80
2018-06-17T08:12:12.703Z,4.80
2018-06-17T08:14:41.886Z,10.07
2018-06-17T08:17:10.952Z,6.93
2018-06-17T08:19:40.497Z,3.03
2018-06-17T08:22:09.532Z,2.60
2018-06-17T08:24:38.736Z,2.90
2018-06-17T08:27:07.876Z,5.93
2018-06-17T08:29:37.066Z,2.73
2018-06-17T08:32:06.261Z,2.53
2018-06-17T08:34:35.331Z,2.53
2018-06-17T08:37:04.458Z,3.67
2018-06-17T08:39:33.508Z,6.23
2018-06-17T08:42:02.693Z,4.40
2018-06-17T08:44:31.851Z,3.97
2018-06-17T08:47:00.936Z,3.33
2018-06-17T08:49:30.014Z,3.20
2018-06-17T08:51:59.180Z,4.23
2018-06-17T08:54:28.293Z,3.80
2018-06-17T08:56:57.422Z,3.53
2018-06-17T08:59:26.464Z,3.87
2018-06-17T09:01:55.565Z,4.23
2018-06-17T09:04:24.634Z,6.03
2018-06-17T09:06:53.942Z,3.90
2018-06-17T09:09:23.146Z,6.07
2018-06-17T09:11:52.325Z,5.63
2018-06-17T09:14:21.396Z,3.97
2018-06-17T09:16:50.634Z,4.67
2018-06-17T09:19:19.902Z,3.67
2018-06-17T09:21:49.088Z,3.63
2018-06-17T09:24:18.234Z,5.60
2018-06-17T09:26:47.360Z,3.87
2018-06-17T09:29:16.465Z,4.97
2018-06-17T09:31:45.627Z,7.67
2018-06-17T09:34:14.637Z,4.80
2018-06-17T09:36:43.826Z,5.53
2018-06-17T09:39:12.899Z,4.20
2018-06-17T09:41:41.912Z,7.07
2018-06-17T09:44:10.921Z,9.50
2018-06-17T09:46:39.928Z,3.73
2018-06-17T09:49:09.219Z,4.23
2018-06-17T09:51:38.394Z,6.80
2018-06-17T09:54:07.614Z,3.90
2018-06-17T09:56:36.663Z,5.83
2018-06-17T09:59:05.781Z,5.40
2018-06-17T10:01:34.814Z,7.13
2018-06-17T10:04:03.856Z,3.90
2018-06-17T10:06:32.891Z,4.97
2018-06-17T10:09:02.022Z,3.17
2018-06-17T10:11:32.185Z,4.83
2018-06-17T10:14:01.693Z,9.50
2018-06-17T10:16:31.055Z,4.70
2018-06-17T10:19:00.565Z,6.63
2018-06-17T10:21:29.868Z,6.00
2018-06-17T10:23:59.196Z,6.20
2018-06-17T10:26:28.556Z,6.53
2018-06-17T10:28:57.936Z,9.93
2018-06-17T10:31:27.337Z,5.50
2018-06-17T10:33:56.608Z,6.57
2018-06-17T10:36:25.925Z,7.47
2018-06-17T10:38:55.354Z,6.90
2018-06-17T10:41:24.657Z,5.63
2018-06-17T10:43:54.037Z,8.33
2018-06-17T10:46:23.344Z,6.47
2018-06-17T10:48:52.735Z,8.33
2018-06-17T10:51:22.091Z,5.90
2018-06-17T10:53:51.452Z,9.03
2018-06-17T10:56:20.840Z,7.80
2018-06-17T10:58:50.138Z,7.33
2018-06-17T11:01:19.491Z,8.60
2018-06-17T11:03:48.962Z,4.47
2018-06-17T11:06:18.345Z,4.60
2018-06-17T11:08:47.919Z,3.30
2018-06-17T11:11:17.315Z,8.33
2018-06-17T11:13:46.677Z,6.57
2018-06-17T11:16:15.974Z,6.10
2018-06-17T11:18:45.365Z,6.50
2018-06-17T11:21:14.764Z,8.60
2018-06-17T11:23:44.130Z,7.27
2018-06-17T11:26:13.488Z,10.70
2018-06-17T11:28:42.959Z,4.80
2018-06-17T11:31:12.293Z,10.77
2018-06-17T11:33:41.675Z,5.27
2018-06-17T11:36:11.021Z,6.00
2018-06-17T11:38:40.341Z,4.47
2018-06-17T11:41:09.749Z,7.17
2018-06-17T11:43:39.084Z,4.70
2018-06-17T11:46:08.460Z,4.13
2018-06-17T11:48:37.803Z,8.40
2018-06-17T11:51:07.152Z,5.73
2018-06-17T11:53:36.507Z,4.43
2018-06-17T11:56:05.824Z,3.73
2018-06-17T11:58:35.194Z,9.80
2018-06-17T12:01:04.504Z,6.50
2018-06-17T12:03:33.827Z,4.93
2018-06-17T12:06:03.231Z,5.40
2018-06-17T12:08:32.545Z,4.60
2018-06-17T12:11:01.883Z,3.57
2018-06-17T12:13:31.180Z,4.43
2018-06-17T12:16:00.574Z,3.90
2018-06-17T12:18:29.925Z,4.03
2018-06-17T12:20:59.309Z,7.40
2018-06-17T12:23:28.662Z,7.90
2018-06-17T12:25:57.989Z,6.93
2018-06-17T12:28:27.411Z,9.93
2018-06-17T12:30:56.767Z,6.80
2018-06-17T12:33:26.102Z,6.03
2018-06-17T12:35:55.641Z,3.80
2018-06-17T12:38:24.967Z,4.37
2018-06-17T12:40:54.405Z,6.43
2018-06-17T12:43:23.733Z,4.73
2018-06-17T12:45:53.012Z,8.03
2018-06-17T12:48:22.288Z,3.50
2018-06-17T12:50:51.609Z,7.13
2018-06-17T12:53:20.974Z,3.73
2018-06-17T12:55:50.245Z,6.33
2018-06-17T12:58:19.516Z,6.60
2018-06-17T13:00:48.785Z,3.03
2018-06-17T13:03:18.133Z,3.20
2018-06-17T13:05:47.434Z,3.20
2018-06-17T13:08:16.708Z,4.50
2018-06-17T13:10:46.068Z,7.80
2018-06-17T13:13:15.373Z,7.30
2018-06-17T13:15:44.932Z,3.27
2018-06-17T13:18:14.230Z,3.27
2018-06-17T13:20:43.601Z,3.77
2018-06-17T13:23:13.177Z,6.93
2018-06-17T13:25:42.640Z,5.47
2018-06-17T13:28:12.313Z,3.43
2018-06-17T13:30:42.733Z,4.60
2018-06-17T13:33:12.184Z,6.57
2018-06-17T13:35:41.615Z,3.90
2018-06-17T13:38:11.066Z,4.17
2018-06-17T13:40:40.376Z,3.67
2018-06-17T13:43:10.854Z,4.90
2018-06-17T13:45:40.166Z,3.27
2018-06-17T13:48:09.528Z,5.67
2018-06-17T13:50:39.020Z,3.03
2018-06-17T13:53:08.555Z,5.67
2018-06-17T13:55:37.888Z,4.20
2018-06-17T13:58:07.352Z,6.03
2018-06-17T14:00:36.969Z,3.57
2018-06-17T14:03:06.269Z,8.00
2018-06-17T14:05:35.645Z,6.73
2018-06-17T14:08:04.956Z,3.87
2018-06-17T14:10:34.273Z,4.50
2018-06-17T14:13:03.641Z,3.70
2018-06-17T14:15:33.155Z,3.90
2018-06-17T14:18:02.528Z,4.13
2018-06-17T14:20:31.912Z,3.40
2018-06-17T14:23:01.215Z,10.00
2018-06-17T14:25:30.528Z,5.70
2018-06-17T14:27:59.898Z,3.83
2018-06-17T14:30:29.199Z,10.20
2018-06-17T14:32:58.488Z,2.57
2018-06-17T14:35:27.876Z,5.47
2018-06-17T14:37:57.205Z,5.93
2018-06-17T14:40:26.522Z,2.90
2018-06-17T14:43:00.972Z,4.10
2018-06-17T14:45:35.405Z,6.30
2018-06-17T14:48:10.881Z,8.50
2018-06-17T14:50:45.649Z,6.10
2018-06-17T14:53:16.664Z,5.83
2018-06-17T14:55:46.068Z,6.53
2018-06-17T14:58:15.425Z,5.20
2018-06-17T15:00:44.760Z,5.10
2018-06-17T15:03:14.139Z,5.63
2018-06-17T15:05:43.585Z,7.70
2018-06-17T15:08:12.890Z,4.80
2018-06-17T15:10:42.201Z,7.60
2018-06-17T15:13:11.529Z,7.10
2018-06-17T15:15:42.173Z,6.80
2018-06-17T15:18:11.618Z,9.23
2018-06-17T15:20:40.873Z,10.30
2018-06-17T15:23:10.216Z,14.70
2018-06-17T15:25:39.534Z,6.17
2018-06-17T15:28:08.837Z,6.63
2018-06-17T15:30:38.205Z,10.50
2018-06-17T15:33:12.856Z,10.50
2018-06-17T15:35:48.245Z,16.90
2018-06-17T15:38:22.768Z,11.50
2018-06-17T15:40:57.402Z,9.47
2018-06-17T15:43:27.421Z,12.60
2018-06-17T15:45:57.288Z,7.80
2018-06-17T15:48:26.641Z,9.80
2018-06-17T15:50:55.998Z,7.70
2018-06-17T15:53:25.293Z,8.20
2018-06-17T15:55:54.658Z,9.17
2018-06-17T15:58:23.928Z,12.23
2018-06-17T16:00:53.317Z,8.93
2018-06-17T16:03:22.624Z,10.67
2018-06-17T16:05:52.082Z,6.40
2018-06-17T16:08:21.404Z,11.97
2018-06-17T16:10:50.707Z,8.27
2018-06-17T16:13:25.221Z,10.73
2018-06-17T16:15:59.704Z,8.50
2018-06-17T16:18:35.004Z,6.93
2018-06-17T16:21:06.277Z,7.93
2018-06-17T16:23:35.955Z,5.60
2018-06-17T16:26:05.352Z,12.97
2018-06-17T16:28:34.704Z,15.13
2018-06-17T16:31:06.845Z,15.60
2018-06-17T16:33:36.145Z,7.43
2018-06-17T16:36:05.556Z,5.70
2018-06-17T16:38:35.896Z,7.87
2018-06-17T16:41:05.249Z,7.60
2018-06-17T16:43:34.534Z,7.30
2018-06-17T16:46:03.859Z,3.60
2018-06-17T16:48:33.156Z,8.97
2018-06-17T16:51:07.772Z,7.50
2018-06-17T16:53:42.228Z,5.93
2018-06-17T16:56:16.726Z,9.03
2018-06-17T16:58:52.084Z,3.60
2018-06-17T17:01:21.501Z,5.00
2018-06-17T17:03:50.824Z,11.57
2018-06-17T17:06:20.240Z,7.80
2018-06-17T17:08:49.557Z,6.80
2018-06-17T17:11:18.873Z,5.80
2018-06-17T17:13:48.249Z,7.13
2018-06-17T17:16:17.601Z,6.13
2018-06-17T17:18:46.916Z,6.33
2018-06-17T17:21:16.227Z,11.43
2018-06-17T17:23:45.549Z,5.63
2018-06-17T17:26:14.961Z,7.53
2018-06-17T17:28:44.321Z,10.03
2018-06-17T17:31:13.668Z,4.27
2018-06-17T17:33:48.240Z,4.10
2018-06-17T17:36:22.811Z,6.80
2018-06-17T17:38:57.241Z,5.67
2018-06-17T17:41:26.669Z,6.90
2018-06-17T17:43:56.036Z,4.57
2018-06-17T17:46:32.229Z,5.60
2018-06-17T17:49:01.562Z,3.70
2018-06-17T17:51:30.877Z,4.30
2018-06-17T17:54:00.287Z,10.50
2018-06-17T17:56:29.631Z,10.27
2018-06-17T17:58:59.089Z,11.77
2018-06-17T18:01:28.575Z,6.93
2018-06-17T18:03:58.731Z,4.20
2018-06-17T18:06:28.203Z,6.03
2018-06-17T18:08:57.556Z,5.60
2018-06-17T18:11:26.940Z,7.90
2018-06-17T18:13:56.424Z,6.20
2018-06-17T18:16:25.828Z,9.33
2018-06-17T18:18:55.282Z,11.07
2018-06-17T18:21:24.618Z,5.67
2018-06-17T18:23:53.998Z,7.67
2018-06-17T18:26:28.913Z,7.40
2018-06-17T18:29:04.363Z,14.60
2018-06-17T18:31:38.954Z,6.23
2018-06-17T18:34:13.555Z,4.77
2018-06-17T18:36:43.963Z,5.10
2018-06-17T18:39:13.260Z,8.30
2018-06-17T18:41:42.544Z,8.90
2018-06-17T18:44:11.859Z,8.30
2018-06-17T18:46:41.169Z,11.00
2018-06-17T18:49:10.518Z,11.83
2018-06-17T18:51:39.795Z,8.30
2018-06-17T18:54:09.110Z,3.30
2018-06-17T18:56:38.404Z,12.60
2018-06-17T18:59:07.791Z,11.07
2018-06-17T19:01:37.157Z,4.20
2018-06-17T19:04:06.433Z,8.30
2018-06-17T19:06:35.832Z,6.43
2018-06-17T19:09:12.748Z,8.33
2018-06-17T19:11:47.409Z,6.43
2018-06-17T19:14:22.942Z,7.63
2018-06-17T19:16:57.506Z,5.87
2018-06-17T19:19:26.921Z,5.47
2018-06-17T19:21:56.228Z,7.43
2018-06-17T19:24:25.527Z,7.93
2018-06-17T19:26:54.834Z,6.60
2018-06-17T19:29:24.189Z,4.13
2018-06-17T19:31:53.505Z,9.43
2018-06-17T19:34:22.825Z,4.77
2018-06-17T19:36:52.180Z,4.13
2018-06-17T19:39:21.520Z,10.40
2018-06-17T19:41:50.837Z,12.13
2018-06-17T19:44:20.169Z,4.30
2018-06-17T19:46:49.501Z,3.07
2018-06-17T19:49:18.897Z,5.43
2018-06-17T19:51:53.288Z,5.67
2018-06-17T19:54:27.965Z,7.43
2018-06-17T19:57:02.498Z,9.80
2018-06-17T19:59:42.550Z,4.70
2018-06-17T20:02:12.372Z,4.13
2018-06-17T20:04:41.743Z,5.50
2018-06-17T20:07:11.047Z,6.13
2018-06-17T20:09:40.379Z,8.30
2018-06-17T20:12:09.930Z,6.93
2018-06-17T20:14:39.232Z,6.40
2018-06-17T20:17:08.620Z,6.67
2018-06-17T20:19:37.976Z,4.97
2018-06-17T20:22:08.449Z,7.93
2018-06-17T20:24:39.862Z,7.03
2018-06-17T20:27:09.303Z,9.00
2018-06-17T20:29:38.706Z,17.30
2018-06-17T20:32:13.348Z,10.07
2018-06-17T20:34:47.824Z,11.50
2018-06-17T20:37:22.478Z,7.33
2018-06-17T20:39:54.172Z,6.97
2018-06-17T20:42:28.660Z,7.53
2018-06-17T20:44:58.268Z,7.07
2018-06-17T20:47:27.908Z,6.53
2018-06-17T20:49:57.381Z,4.17
2018-06-17T20:52:26.661Z,9.90
2018-06-17T20:54:56.069Z,9.73
2018-06-17T20:57:25.983Z,10.10
2018-06-17T20:59:56.846Z,5.50
2018-06-17T21:02:26.233Z,19.57
2018-06-17T21:04:55.651Z,6.80
2018-06-17T21:07:25.139Z,6.90
2018-06-17T21:09:54.655Z,4.93
2018-06-17T21:12:23.922Z,5.30
2018-06-17T21:14:53.513Z,4.33
2018-06-17T21:17:25.592Z,4.90
2018-06-17T21:20:00.181Z,10.40
2018-06-17T21:22:34.856Z,5.37
2018-06-17T21:25:09.299Z,9.37
2018-06-17T21:27:40.832Z,6.53
2018-06-17T21:30:10.892Z,6.73
2018-06-17T21:32:40.862Z,8.03
2018-06-17T21:35:10.761Z,6.07
2018-06-17T21:37:40.157Z,4.87
2018-06-17T21:40:09.456Z,6.33
2018-06-17T21:42:38.934Z,7.70
2018-06-17T21:45:08.528Z,6.20
2018-06-17T21:47:37.888Z,6.70
2018-06-17T21:50:07.249Z,6.77
2018-06-17T21:52:36.519Z,7.30
2018-06-17T21:55:05.870Z,8.93
2018-06-17T21:57:35.141Z,7.70
2018-06-17T22:00:05.581Z,7.73
2018-06-17T22:02:39.581Z,6.60
2018-06-17T22:05:08.941Z,10.70
2018-06-17T22:07:43.621Z,7.67
2018-06-17T22:10:19.644Z,6.07
2018-06-17T22:12:54.098Z,6.20
2018-06-17T22:15:28.792Z,6.60
2018-06-17T22:17:58.101Z,6.67
2018-06-17T22:20:27.359Z,8.10
2018-06-17T22:22:56.731Z,7.30
2018-06-17T22:25:26.062Z,4.90
2018-06-17T22:27:55.667Z,5.20
2018-06-17T22:30:24.940Z,9.00
2018-06-17T22:32:54.271Z,8.50
2018-06-17T22:35:23.552Z,9.27
2018-06-17T22:37:53.096Z,3.40
2018-06-17T22:40:22.353Z,5.43
2018-06-17T22:42:51.613Z,6.60
2018-06-17T22:45:20.864Z,8.57
2018-06-17T22:47:56.318Z,9.70
2018-06-17T22:50:25.582Z,5.83
2018-06-17T22:53:06.044Z,7.17
2018-06-17T22:55:35.549Z,9.13
2018-06-17T22:58:10.094Z,6.80
2018-06-17T23:00:44.653Z,9.23
2018-06-17T23:03:19.198Z,9.57
2018-06-17T23:05:53.786Z,11.83
2018-06-17T23:08:28.450Z,6.43
2018-06-17T23:10:57.919Z,9.13
2018-06-17T23:13:27.424Z,11.93
2018-06-17T23:15:56.812Z,13.97
2018-06-17T23:18:26.136Z,11.17
2018-06-17T23:20:55.472Z,9.10
2018-06-17T23:23:24.725Z,14.70
2018-06-17T23:25:53.991Z,23.53
2018-06-17T23:28:23.375Z,12.27
2018-06-17T23:30:52.659Z,11.60
2018-06-17T23:33:21.966Z,7.03
2018-06-17T23:35:51.233Z,5.67
2018-06-17T23:38:21.588Z,7.77
2018-06-17T23:40:50.968Z,5.57
2018-06-17T23:43:20.272Z,8.43
2018-06-17T23:45:54.761Z,7.63
2018-06-17T23:48:29.441Z,11.50
2018-06-17T23:51:03.934Z,15.60
2018-06-17T23:53:38.424Z,10.60
2018-06-17T23:56:09.160Z,8.97
2018-06-17T23:58:39.390Z,9.90
